sensor_id;sensor_type;location;lat;lon;timestamp;P1;durP1;ratioP1;P2;durP2;ratioP2
59854;SDS011;45732;52.850;6.896;2023-07-24T00:02:06;9.27;;;6.70;;
59854;SDS011;45732;52.850;6.896;2023-07-24T00:04:32;9.68;;;6.80;;
59854;SDS011;45732;52.850;6.896;2023-07-24T00:06:59;10.32;;;7.00;;
59854;SDS011;45732;52.850;6.896;2023-07-24T00:09:25;9.02;;;7.00;;
59854;SDS011;45732;52.850;6.896;2023-07-24T00:11:51;8.88;;;6.80;;
59854;SDS011;45732;52.850;6.896;2023-07-24T00:14:17;11.88;;;7.68;;
59854;SDS011;45732;52.850;6.896;2023-07-24T00:16:42;9.85;;;7.93;;
59854;SDS011;45732;52.850;6.896;2023-07-24T00:19:08;10.63;;;7.22;;
59854;SDS011;45732;52.850;6.896;2023-07-24T00:21:34;10.48;;;7.78;;
59854;SDS011;45732;52.850;6.896;2023-07-24T00:23:59;10.68;;;8.00;;
59854;SDS011;45732;52.850;6.896;2023-07-24T00:26:25;11.38;;;8.57;;
59854;SDS011;45732;52.850;6.896;2023-07-24T00:28:51;11.25;;;8.90;;
59854;SDS011;45732;52.850;6.896;2023-07-24T00:31:17;10.88;;;8.07;;
59854;SDS011;45732;52.850;6.896;2023-07-24T00:33:42;11.93;;;9.85;;
59854;SDS011;45732;52.850;6.896;2023-07-24T00:36:08;11.50;;;9.75;;
59854;SDS011;45732;52.850;6.896;2023-07-24T00:38:34;10.57;;;9.45;;
59854;SDS011;45732;52.850;6.896;2023-07-24T00:40:59;11.80;;;9.45;;
59854;SDS011;45732;52.850;6.896;2023-07-24T00:43:25;11.73;;;9.45;;
59854;SDS011;45732;52.850;6.896;2023-07-24T00:45:51;12.20;;;10.18;;
59854;SDS011;45732;52.850;6.896;2023-07-24T00:48:19;12.88;;;10.63;;
59854;SDS011;45732;52.850;6.896;2023-07-24T00:50:44;12.18;;;10.32;;
59854;SDS011;45732;52.850;6.896;2023-07-24T00:53:11;12.75;;;10.38;;
59854;SDS011;45732;52.850;6.896;2023-07-24T00:55:38;13.38;;;10.07;;
59854;SDS011;45732;52.850;6.896;2023-07-24T00:58:05;11.75;;;10.15;;
59854;SDS011;45732;52.850;6.896;2023-07-24T01:00:31;11.65;;;9.85;;
59854;SDS011;45732;52.850;6.896;2023-07-24T01:02:58;13.15;;;10.38;;
59854;SDS011;45732;52.850;6.896;2023-07-24T01:05:25;12.07;;;10.45;;
59854;SDS011;45732;52.850;6.896;2023-07-24T01:07:54;11.57;;;9.82;;
59854;SDS011;45732;52.850;6.896;2023-07-24T01:10:20;13.25;;;10.82;;
59854;SDS011;45732;52.850;6.896;2023-07-24T01:12:51;12.98;;;10.98;;
59854;SDS011;45732;52.850;6.896;2023-07-24T01:17:57;11.88;;;10.02;;
59854;SDS011;45732;52.850;6.896;2023-07-24T01:20:34;13.07;;;11.45;;
59854;SDS011;45732;52.850;6.896;2023-07-24T01:26:11;14.32;;;11.15;;
59854;SDS011;45732;52.850;6.896;2023-07-24T01:28:38;13.43;;;10.35;;
59854;SDS011;45732;52.850;6.896;2023-07-24T01:31:04;13.73;;;11.25;;
59854;SDS011;45732;52.850;6.896;2023-07-24T01:33:30;13.65;;;10.45;;
59854;SDS011;45732;52.850;6.896;2023-07-24T01:35:59;12.63;;;9.95;;
59854;SDS011;45732;52.850;6.896;2023-07-24T01:38:27;13.02;;;10.75;;
59854;SDS011;45732;52.850;6.896;2023-07-24T01:40:56;11.60;;;10.00;;
59854;SDS011;45732;52.850;6.896;2023-07-24T01:43:22;13.88;;;9.90;;
59854;SDS011;45732;52.850;6.896;2023-07-24T01:45:52;10.93;;;9.43;;
59854;SDS011;45732;52.850;6.896;2023-07-24T01:48:18;13.95;;;9.95;;
59854;SDS011;45732;52.850;6.896;2023-07-24T01:50:43;11.48;;;9.30;;
59854;SDS011;45732;52.850;6.896;2023-07-24T01:53:09;14.82;;;10.05;;
59854;SDS011;45732;52.850;6.896;2023-07-24T01:55:35;11.30;;;9.50;;
59854;SDS011;45732;52.850;6.896;2023-07-24T01:58:01;11.70;;;9.52;;
59854;SDS011;45732;52.850;6.896;2023-07-24T02:00:26;11.10;;;9.43;;
59854;SDS011;45732;52.850;6.896;2023-07-24T02:02:52;12.55;;;9.43;;
59854;SDS011;45732;52.850;6.896;2023-07-24T02:05:18;11.50;;;9.18;;
59854;SDS011;45732;52.850;6.896;2023-07-24T02:07:43;12.18;;;9.15;;
59854;SDS011;45732;52.850;6.896;2023-07-24T02:10:09;12.05;;;8.82;;
59854;SDS011;45732;52.850;6.896;2023-07-24T02:12:35;10.20;;;7.68;;
59854;SDS011;45732;52.850;6.896;2023-07-24T02:15:01;12.57;;;8.52;;
59854;SDS011;45732;52.850;6.896;2023-07-24T02:17:26;11.88;;;8.95;;
59854;SDS011;45732;52.850;6.896;2023-07-24T02:19:52;10.70;;;8.82;;
59854;SDS011;45732;52.850;6.896;2023-07-24T02:22:18;11.68;;;8.98;;
59854;SDS011;45732;52.850;6.896;2023-07-24T02:24:44;11.27;;;8.80;;
59854;SDS011;45732;52.850;6.896;2023-07-24T02:27:12;10.50;;;8.15;;
59854;SDS011;45732;52.850;6.896;2023-07-24T02:29:39;12.18;;;8.88;;
59854;SDS011;45732;52.850;6.896;2023-07-24T02:32:05;12.00;;;8.23;;
59854;SDS011;45732;52.850;6.896;2023-07-24T02:34:31;11.80;;;8.60;;
59854;SDS011;45732;52.850;6.896;2023-07-24T02:36:56;11.05;;;8.70;;
59854;SDS011;45732;52.850;6.896;2023-07-24T02:39:22;12.35;;;9.20;;
59854;SDS011;45732;52.850;6.896;2023-07-24T02:41:48;10.80;;;8.38;;
59854;SDS011;45732;52.850;6.896;2023-07-24T02:44:14;11.65;;;8.80;;
59854;SDS011;45732;52.850;6.896;2023-07-24T02:46:40;11.85;;;8.57;;
59854;SDS011;45732;52.850;6.896;2023-07-24T02:49:05;11.38;;;8.93;;
59854;SDS011;45732;52.850;6.896;2023-07-24T02:51:32;10.48;;;8.75;;
59854;SDS011;45732;52.850;6.896;2023-07-24T02:53:57;14.70;;;9.40;;
59854;SDS011;45732;52.850;6.896;2023-07-24T02:56:23;10.60;;;8.32;;
59854;SDS011;45732;52.850;6.896;2023-07-24T02:58:49;10.40;;;8.50;;
59854;SDS011;45732;52.850;6.896;2023-07-24T03:01:15;10.98;;;8.55;;
59854;SDS011;45732;52.850;6.896;2023-07-24T03:03:41;11.57;;;9.32;;
59854;SDS011;45732;52.850;6.896;2023-07-24T03:06:07;9.75;;;8.30;;
59854;SDS011;45732;52.850;6.896;2023-07-24T03:08:32;11.40;;;8.38;;
59854;SDS011;45732;52.850;6.896;2023-07-24T03:10:59;11.68;;;8.48;;
59854;SDS011;45732;52.850;6.896;2023-07-24T03:13:25;10.05;;;8.35;;
59854;SDS011;45732;52.850;6.896;2023-07-24T03:15:51;10.43;;;8.65;;
59854;SDS011;45732;52.850;6.896;2023-07-24T03:18:18;10.88;;;8.32;;
59854;SDS011;45732;52.850;6.896;2023-07-24T03:20:44;11.57;;;9.00;;
59854;SDS011;45732;52.850;6.896;2023-07-24T03:23:10;12.80;;;8.43;;
59854;SDS011;45732;52.850;6.896;2023-07-24T03:25:35;12.23;;;8.50;;
59854;SDS011;45732;52.850;6.896;2023-07-24T03:28:01;9.90;;;8.30;;
59854;SDS011;45732;52.850;6.896;2023-07-24T03:30:27;10.45;;;8.00;;
59854;SDS011;45732;52.850;6.896;2023-07-24T03:32:53;11.05;;;8.13;;
59854;SDS011;45732;52.850;6.896;2023-07-24T03:35:19;11.15;;;8.40;;
59854;SDS011;45732;52.850;6.896;2023-07-24T03:37:44;11.88;;;8.68;;
59854;SDS011;45732;52.850;6.896;2023-07-24T03:40:10;10.80;;;8.30;;
59854;SDS011;45732;52.850;6.896;2023-07-24T03:42:36;10.27;;;8.45;;
59854;SDS011;45732;52.850;6.896;2023-07-24T03:45:02;10.50;;;7.88;;
59854;SDS011;45732;52.850;6.896;2023-07-24T03:47:28;11.77;;;9.05;;
59854;SDS011;45732;52.850;6.896;2023-07-24T03:49:54;11.27;;;8.75;;
59854;SDS011;45732;52.850;6.896;2023-07-24T03:52:20;11.57;;;8.98;;
59854;SDS011;45732;52.850;6.896;2023-07-24T03:54:46;12.57;;;9.30;;
59854;SDS011;45732;52.850;6.896;2023-07-24T03:57:12;11.88;;;9.05;;
59854;SDS011;45732;52.850;6.896;2023-07-24T03:59:37;11.48;;;9.07;;
59854;SDS011;45732;52.850;6.896;2023-07-24T04:02:03;12.52;;;9.50;;
59854;SDS011;45732;52.850;6.896;2023-07-24T04:04:30;10.75;;;9.15;;
59854;SDS011;45732;52.850;6.896;2023-07-24T04:06:56;10.98;;;9.00;;
59854;SDS011;45732;52.850;6.896;2023-07-24T04:09:21;11.80;;;9.80;;
59854;SDS011;45732;52.850;6.896;2023-07-24T04:11:47;11.48;;;9.10;;
59854;SDS011;45732;52.850;6.896;2023-07-24T04:14:13;12.45;;;9.45;;
59854;SDS011;45732;52.850;6.896;2023-07-24T04:16:39;13.35;;;9.50;;
59854;SDS011;45732;52.850;6.896;2023-07-24T04:19:04;12.02;;;10.05;;
59854;SDS011;45732;52.850;6.896;2023-07-24T04:21:30;11.60;;;9.35;;
59854;SDS011;45732;52.850;6.896;2023-07-24T04:23:56;11.75;;;10.05;;
59854;SDS011;45732;52.850;6.896;2023-07-24T04:26:22;11.45;;;10.02;;
59854;SDS011;45732;52.850;6.896;2023-07-24T04:28:47;12.40;;;9.40;;
59854;SDS011;45732;52.850;6.896;2023-07-24T04:31:13;11.98;;;9.93;;
59854;SDS011;45732;52.850;6.896;2023-07-24T04:33:39;11.25;;;9.30;;
59854;SDS011;45732;52.850;6.896;2023-07-24T04:36:04;12.80;;;10.35;;
59854;SDS011;45732;52.850;6.896;2023-07-24T04:38:30;12.50;;;10.25;;
59854;SDS011;45732;52.850;6.896;2023-07-24T04:40:56;11.98;;;10.07;;
59854;SDS011;45732;52.850;6.896;2023-07-24T04:43:22;13.27;;;10.70;;
59854;SDS011;45732;52.850;6.896;2023-07-24T04:45:47;13.00;;;10.52;;
59854;SDS011;45732;52.850;6.896;2023-07-24T04:48:13;13.40;;;11.40;;
59854;SDS011;45732;52.850;6.896;2023-07-24T04:50:39;12.68;;;10.80;;
59854;SDS011;45732;52.850;6.896;2023-07-24T04:53:04;13.18;;;11.00;;
59854;SDS011;45732;52.850;6.896;2023-07-24T04:55:30;12.60;;;11.30;;
59854;SDS011;45732;52.850;6.896;2023-07-24T04:57:56;12.43;;;11.10;;
59854;SDS011;45732;52.850;6.896;2023-07-24T05:00:21;12.43;;;10.52;;
59854;SDS011;45732;52.850;6.896;2023-07-24T05:02:47;12.98;;;10.70;;
59854;SDS011;45732;52.850;6.896;2023-07-24T05:05:13;12.13;;;10.00;;
59854;SDS011;45732;52.850;6.896;2023-07-24T05:07:38;13.48;;;11.40;;
59854;SDS011;45732;52.850;6.896;2023-07-24T05:10:04;14.35;;;11.50;;
59854;SDS011;45732;52.850;6.896;2023-07-24T05:12:30;13.38;;;11.25;;
59854;SDS011;45732;52.850;6.896;2023-07-24T05:14:56;13.13;;;11.73;;
59854;SDS011;45732;52.850;6.896;2023-07-24T05:17:22;13.15;;;11.73;;
59854;SDS011;45732;52.850;6.896;2023-07-24T05:19:47;13.43;;;12.05;;
59854;SDS011;45732;52.850;6.896;2023-07-24T05:22:13;14.68;;;11.55;;
59854;SDS011;45732;52.850;6.896;2023-07-24T05:24:39;13.27;;;11.35;;
59854;SDS011;45732;52.850;6.896;2023-07-24T05:27:05;12.43;;;11.10;;
59854;SDS011;45732;52.850;6.896;2023-07-24T05:29:31;15.20;;;11.85;;
59854;SDS011;45732;52.850;6.896;2023-07-24T05:31:57;14.93;;;11.93;;
59854;SDS011;45732;52.850;6.896;2023-07-24T05:34:24;14.93;;;12.35;;
59854;SDS011;45732;52.850;6.896;2023-07-24T05:36:50;13.98;;;11.75;;
59854;SDS011;45732;52.850;6.896;2023-07-24T05:39:15;13.80;;;12.30;;
59854;SDS011;45732;52.850;6.896;2023-07-24T05:41:41;14.63;;;12.30;;
59854;SDS011;45732;52.850;6.896;2023-07-24T05:44:07;14.20;;;12.27;;
59854;SDS011;45732;52.850;6.896;2023-07-24T05:46:33;14.02;;;12.50;;
59854;SDS011;45732;52.850;6.896;2023-07-24T05:48:58;13.30;;;11.90;;
59854;SDS011;45732;52.850;6.896;2023-07-24T05:51:26;14.57;;;13.05;;
59854;SDS011;45732;52.850;6.896;2023-07-24T05:53:52;15.77;;;12.45;;
59854;SDS011;45732;52.850;6.896;2023-07-24T05:56:18;14.13;;;12.63;;
59854;SDS011;45732;52.850;6.896;2023-07-24T05:58:44;16.02;;;12.25;;
59854;SDS011;45732;52.850;6.896;2023-07-24T06:01:09;14.52;;;12.98;;
59854;SDS011;45732;52.850;6.896;2023-07-24T06:03:35;13.85;;;11.77;;
59854;SDS011;45732;52.850;6.896;2023-07-24T06:06:01;16.52;;;12.65;;
59854;SDS011;45732;52.850;6.896;2023-07-24T06:08:27;14.05;;;12.55;;
59854;SDS011;45732;52.850;6.896;2023-07-24T06:10:53;13.77;;;12.27;;
59854;SDS011;45732;52.850;6.896;2023-07-24T06:13:19;13.55;;;12.10;;
59854;SDS011;45732;52.850;6.896;2023-07-24T06:15:48;14.50;;;12.25;;
59854;SDS011;45732;52.850;6.896;2023-07-24T06:18:15;17.00;;;12.38;;
59854;SDS011;45732;52.850;6.896;2023-07-24T06:20:41;14.20;;;11.45;;
59854;SDS011;45732;52.850;6.896;2023-07-24T06:23:06;13.88;;;11.55;;
59854;SDS011;45732;52.850;6.896;2023-07-24T06:25:33;13.82;;;11.73;;
59854;SDS011;45732;52.850;6.896;2023-07-24T06:27:58;13.32;;;11.57;;
59854;SDS011;45732;52.850;6.896;2023-07-24T06:30:24;13.40;;;11.52;;
59854;SDS011;45732;52.850;6.896;2023-07-24T06:32:50;14.60;;;11.88;;
59854;SDS011;45732;52.850;6.896;2023-07-24T06:35:16;14.43;;;12.02;;
59854;SDS011;45732;52.850;6.896;2023-07-24T06:37:42;13.63;;;11.57;;
59854;SDS011;45732;52.850;6.896;2023-07-24T06:40:08;13.88;;;11.95;;
59854;SDS011;45732;52.850;6.896;2023-07-24T06:42:34;12.90;;;11.13;;
59854;SDS011;45732;52.850;6.896;2023-07-24T06:44:59;15.05;;;12.57;;
59854;SDS011;45732;52.850;6.896;2023-07-24T06:47:25;14.88;;;12.43;;
59854;SDS011;45732;52.850;6.896;2023-07-24T06:49:51;13.93;;;11.85;;
59854;SDS011;45732;52.850;6.896;2023-07-24T06:52:17;14.55;;;11.73;;
59854;SDS011;45732;52.850;6.896;2023-07-24T06:54:42;15.35;;;12.25;;
59854;SDS011;45732;52.850;6.896;2023-07-24T06:57:08;16.02;;;12.40;;
59854;SDS011;45732;52.850;6.896;2023-07-24T06:59:34;14.48;;;12.05;;
59854;SDS011;45732;52.850;6.896;2023-07-24T07:02:00;14.90;;;12.80;;
59854;SDS011;45732;52.850;6.896;2023-07-24T07:04:25;13.38;;;11.40;;
59854;SDS011;45732;52.850;6.896;2023-07-24T07:06:53;15.05;;;11.68;;
59854;SDS011;45732;52.850;6.896;2023-07-24T07:09:19;15.60;;;11.45;;
59854;SDS011;45732;52.850;6.896;2023-07-24T07:11:45;14.15;;;11.48;;
59854;SDS011;45732;52.850;6.896;2023-07-24T07:14:11;15.07;;;11.40;;
59854;SDS011;45732;52.850;6.896;2023-07-24T07:16:37;14.45;;;11.07;;
59854;SDS011;45732;52.850;6.896;2023-07-24T07:19:03;14.82;;;11.10;;
59854;SDS011;45732;52.850;6.896;2023-07-24T07:21:29;14.45;;;11.05;;
59854;SDS011;45732;52.850;6.896;2023-07-24T07:23:55;12.60;;;11.15;;
59854;SDS011;45732;52.850;6.896;2023-07-24T07:26:20;14.75;;;11.23;;
59854;SDS011;45732;52.850;6.896;2023-07-24T07:28:47;15.25;;;11.35;;
59854;SDS011;45732;52.850;6.896;2023-07-24T07:31:13;13.27;;;10.35;;
59854;SDS011;45732;52.850;6.896;2023-07-24T07:33:38;13.43;;;10.25;;
59854;SDS011;45732;52.850;6.896;2023-07-24T07:36:04;14.75;;;10.38;;
59854;SDS011;45732;52.850;6.896;2023-07-24T07:38:31;13.82;;;10.10;;
59854;SDS011;45732;52.850;6.896;2023-07-24T07:40:57;13.65;;;9.82;;
59854;SDS011;45732;52.850;6.896;2023-07-24T07:43:23;15.20;;;10.32;;
59854;SDS011;45732;52.850;6.896;2023-07-24T07:45:49;12.75;;;9.20;;
59854;SDS011;45732;52.850;6.896;2023-07-24T07:48:14;11.55;;;9.45;;
59854;SDS011;45732;52.850;6.896;2023-07-24T07:50:40;12.85;;;9.23;;
59854;SDS011;45732;52.850;6.896;2023-07-24T07:53:06;12.60;;;9.55;;
59854;SDS011;45732;52.850;6.896;2023-07-24T07:55:32;12.65;;;9.48;;
59854;SDS011;45732;52.850;6.896;2023-07-24T07:57:57;12.60;;;9.27;;
59854;SDS011;45732;52.850;6.896;2023-07-24T08:00:23;11.38;;;8.85;;
59854;SDS011;45732;52.850;6.896;2023-07-24T08:02:49;13.43;;;8.60;;
59854;SDS011;45732;52.850;6.896;2023-07-24T08:05:15;12.32;;;9.48;;
59854;SDS011;45732;52.850;6.896;2023-07-24T08:07:41;19.75;;;15.10;;
59854;SDS011;45732;52.850;6.896;2023-07-24T08:10:07;12.88;;;8.65;;
59854;SDS011;45732;52.850;6.896;2023-07-24T08:12:33;13.23;;;8.20;;
59854;SDS011;45732;52.850;6.896;2023-07-24T08:14:59;12.63;;;8.30;;
59854;SDS011;45732;52.850;6.896;2023-07-24T08:17:24;12.73;;;8.45;;
59854;SDS011;45732;52.850;6.896;2023-07-24T08:19:50;11.25;;;8.30;;
59854;SDS011;45732;52.850;6.896;2023-07-24T08:22:16;12.13;;;7.88;;
59854;SDS011;45732;52.850;6.896;2023-07-24T08:24:42;12.10;;;7.20;;
59854;SDS011;45732;52.850;6.896;2023-07-24T08:27:10;10.75;;;7.35;;
59854;SDS011;45732;52.850;6.896;2023-07-24T08:29:35;12.90;;;8.35;;
59854;SDS011;45732;52.850;6.896;2023-07-24T08:32:03;11.32;;;8.25;;
59854;SDS011;45732;52.850;6.896;2023-07-24T08:34:29;10.63;;;7.03;;
59854;SDS011;45732;52.850;6.896;2023-07-24T08:36:55;12.18;;;7.85;;
59854;SDS011;45732;52.850;6.896;2023-07-24T08:39:20;12.25;;;7.80;;
59854;SDS011;45732;52.850;6.896;2023-07-24T08:41:46;13.55;;;7.80;;
59854;SDS011;45732;52.850;6.896;2023-07-24T08:44:12;11.02;;;7.25;;
59854;SDS011;45732;52.850;6.896;2023-07-24T08:46:38;13.40;;;8.15;;
59854;SDS011;45732;52.850;6.896;2023-07-24T08:49:06;12.35;;;8.18;;
59854;SDS011;45732;52.850;6.896;2023-07-24T08:51:39;12.88;;;8.20;;
59854;SDS011;45732;52.850;6.896;2023-07-24T08:54:07;11.15;;;7.32;;
59854;SDS011;45732;52.850;6.896;2023-07-24T08:56:33;11.27;;;7.70;;
59854;SDS011;45732;52.850;6.896;2023-07-24T08:59:01;11.90;;;7.80;;
59854;SDS011;45732;52.850;6.896;2023-07-24T09:01:26;10.73;;;7.25;;
59854;SDS011;45732;52.850;6.896;2023-07-24T09:03:52;11.82;;;7.55;;
59854;SDS011;45732;52.850;6.896;2023-07-24T09:06:18;12.75;;;7.85;;
59854;SDS011;45732;52.850;6.896;2023-07-24T09:08:43;14.32;;;7.40;;
59854;SDS011;45732;52.850;6.896;2023-07-24T09:11:09;13.60;;;8.68;;
59854;SDS011;45732;52.850;6.896;2023-07-24T09:13:40;14.07;;;7.60;;
59854;SDS011;45732;52.850;6.896;2023-07-24T09:16:07;14.05;;;8.00;;
59854;SDS011;45732;52.850;6.896;2023-07-24T09:18:42;11.00;;;7.10;;
59854;SDS011;45732;52.850;6.896;2023-07-24T09:21:08;11.55;;;7.18;;
59854;SDS011;45732;52.850;6.896;2023-07-24T09:23:34;9.30;;;6.10;;
59854;SDS011;45732;52.850;6.896;2023-07-24T09:26:04;11.07;;;6.97;;
59854;SDS011;45732;52.850;6.896;2023-07-24T09:28:31;11.65;;;7.40;;
59854;SDS011;45732;52.850;6.896;2023-07-24T09:30:58;13.02;;;7.60;;
59854;SDS011;45732;52.850;6.896;2023-07-24T09:36:00;9.30;;;7.10;;
59854;SDS011;45732;52.850;6.896;2023-07-24T09:38:26;12.75;;;7.70;;
59854;SDS011;45732;52.850;6.896;2023-07-24T09:40:52;10.68;;;7.10;;
59854;SDS011;45732;52.850;6.896;2023-07-24T09:43:24;11.23;;;6.65;;
59854;SDS011;45732;52.850;6.896;2023-07-24T09:45:51;11.02;;;6.57;;
59854;SDS011;45732;52.850;6.896;2023-07-24T09:48:18;9.77;;;6.05;;
59854;SDS011;45732;52.850;6.896;2023-07-24T09:50:45;10.35;;;7.10;;
59854;SDS011;45732;52.850;6.896;2023-07-24T09:55:59;12.23;;;6.68;;
59854;SDS011;45732;52.850;6.896;2023-07-24T09:58:33;8.50;;;5.68;;
59854;SDS011;45732;52.850;6.896;2023-07-24T10:01:05;8.80;;;5.82;;
59854;SDS011;45732;52.850;6.896;2023-07-24T10:03:43;9.27;;;6.07;;
59854;SDS011;45732;52.850;6.896;2023-07-24T10:06:11;10.73;;;7.18;;
59854;SDS011;45732;52.850;6.896;2023-07-24T10:08:40;13.30;;;7.50;;
59854;SDS011;45732;52.850;6.896;2023-07-24T10:11:06;11.82;;;7.50;;
59854;SDS011;45732;52.850;6.896;2023-07-24T10:13:33;9.90;;;6.07;;
59854;SDS011;45732;52.850;6.896;2023-07-24T10:16:01;9.80;;;5.32;;
59854;SDS011;45732;52.850;6.896;2023-07-24T10:18:30;9.90;;;5.00;;
59854;SDS011;45732;52.850;6.896;2023-07-24T10:21:03;8.32;;;4.88;;
59854;SDS011;45732;52.850;6.896;2023-07-24T10:23:30;8.50;;;5.43;;
59854;SDS011;45732;52.850;6.896;2023-07-24T10:26:01;9.27;;;5.68;;
59854;SDS011;45732;52.850;6.896;2023-07-24T10:28:32;10.68;;;5.20;;
59854;SDS011;45732;52.850;6.896;2023-07-24T10:31:04;11.93;;;5.70;;
59854;SDS011;45732;52.850;6.896;2023-07-24T10:33:46;9.00;;;5.63;;
59854;SDS011;45732;52.850;6.896;2023-07-24T10:36:16;10.63;;;6.38;;
59854;SDS011;45732;52.850;6.896;2023-07-24T10:38:44;8.82;;;5.32;;
59854;SDS011;45732;52.850;6.896;2023-07-24T10:41:11;8.38;;;5.18;;
59854;SDS011;45732;52.850;6.896;2023-07-24T10:43:40;11.77;;;6.10;;
59854;SDS011;45732;52.850;6.896;2023-07-24T10:46:10;9.95;;;6.00;;
59854;SDS011;45732;52.850;6.896;2023-07-24T10:48:37;10.70;;;5.88;;
59854;SDS011;45732;52.850;6.896;2023-07-24T10:51:07;10.02;;;5.70;;
59854;SDS011;45732;52.850;6.896;2023-07-24T10:53:37;9.98;;;5.97;;
59854;SDS011;45732;52.850;6.896;2023-07-24T10:56:06;11.35;;;5.53;;
59854;SDS011;45732;52.850;6.896;2023-07-24T10:58:32;10.60;;;6.28;;
59854;SDS011;45732;52.850;6.896;2023-07-24T11:01:00;10.15;;;6.07;;
59854;SDS011;45732;52.850;6.896;2023-07-24T11:03:30;11.98;;;6.20;;
59854;SDS011;45732;52.850;6.896;2023-07-24T11:05:56;11.35;;;6.93;;
59854;SDS011;45732;52.850;6.896;2023-07-24T11:08:23;10.90;;;7.13;;
59854;SDS011;45732;52.850;6.896;2023-07-24T11:10:52;12.27;;;6.70;;
59854;SDS011;45732;52.850;6.896;2023-07-24T11:13:20;9.88;;;6.07;;
59854;SDS011;45732;52.850;6.896;2023-07-24T11:15:48;9.77;;;5.88;;
59854;SDS011;45732;52.850;6.896;2023-07-24T11:18:14;10.15;;;5.70;;
59854;SDS011;45732;52.850;6.896;2023-07-24T11:20:44;8.63;;;5.80;;
59854;SDS011;45732;52.850;6.896;2023-07-24T11:23:11;11.18;;;6.38;;
59854;SDS011;45732;52.850;6.896;2023-07-24T11:25:38;10.25;;;6.30;;
59854;SDS011;45732;52.850;6.896;2023-07-24T11:28:07;9.82;;;6.00;;
59854;SDS011;45732;52.850;6.896;2023-07-24T11:30:35;10.48;;;5.80;;
59854;SDS011;45732;52.850;6.896;2023-07-24T11:33:04;10.10;;;5.57;;
59854;SDS011;45732;52.850;6.896;2023-07-24T11:35:32;8.80;;;4.90;;
59854;SDS011;45732;52.850;6.896;2023-07-24T11:38:00;8.52;;;5.20;;
59854;SDS011;45732;52.850;6.896;2023-07-24T11:43:16;8.57;;;4.97;;
59854;SDS011;45732;52.850;6.896;2023-07-24T11:45:43;8.18;;;4.25;;
59854;SDS011;45732;52.850;6.896;2023-07-24T11:48:10;8.40;;;4.85;;
59854;SDS011;45732;52.850;6.896;2023-07-24T11:50:44;10.27;;;5.00;;
59854;SDS011;45732;52.850;6.896;2023-07-24T11:55:47;9.38;;;5.00;;
59854;SDS011;45732;52.850;6.896;2023-07-24T11:58:15;9.80;;;4.63;;
59854;SDS011;45732;52.850;6.896;2023-07-24T12:00:42;8.27;;;5.40;;
59854;SDS011;45732;52.850;6.896;2023-07-24T12:03:08;9.65;;;5.15;;
59854;SDS011;45732;52.850;6.896;2023-07-24T12:05:37;10.05;;;4.80;;
59854;SDS011;45732;52.850;6.896;2023-07-24T12:08:04;9.60;;;5.05;;
59854;SDS011;45732;52.850;6.896;2023-07-24T12:10:30;9.73;;;4.93;;
59854;SDS011;45732;52.850;6.896;2023-07-24T12:12:58;8.52;;;4.95;;
59854;SDS011;45732;52.850;6.896;2023-07-24T12:15:27;11.40;;;5.22;;
59854;SDS011;45732;52.850;6.896;2023-07-24T12:17:53;7.90;;;5.03;;
59854;SDS011;45732;52.850;6.896;2023-07-24T12:20:19;9.13;;;4.65;;
59854;SDS011;45732;52.850;6.896;2023-07-24T12:22:45;9.75;;;4.80;;
59854;SDS011;45732;52.850;6.896;2023-07-24T12:25:12;9.95;;;4.72;;
59854;SDS011;45732;52.850;6.896;2023-07-24T12:27:38;10.02;;;4.97;;
59854;SDS011;45732;52.850;6.896;2023-07-24T12:30:06;10.23;;;4.80;;
59854;SDS011;45732;52.850;6.896;2023-07-24T12:32:32;7.70;;;4.78;;
59854;SDS011;45732;52.850;6.896;2023-07-24T12:34:58;8.15;;;4.60;;
59854;SDS011;45732;52.850;6.896;2023-07-24T12:37:24;10.43;;;5.47;;
59854;SDS011;45732;52.850;6.896;2023-07-24T12:39:50;9.38;;;4.85;;
59854;SDS011;45732;52.850;6.896;2023-07-24T12:42:15;10.40;;;5.32;;
59854;SDS011;45732;52.850;6.896;2023-07-24T12:44:42;9.50;;;4.60;;
59854;SDS011;45732;52.850;6.896;2023-07-24T12:47:08;11.32;;;5.07;;
59854;SDS011;45732;52.850;6.896;2023-07-24T12:49:34;8.38;;;4.70;;
59854;SDS011;45732;52.850;6.896;2023-07-24T12:52:00;7.95;;;4.43;;
59854;SDS011;45732;52.850;6.896;2023-07-24T12:54:27;8.57;;;4.30;;
59854;SDS011;45732;52.850;6.896;2023-07-24T12:56:53;8.75;;;4.43;;
59854;SDS011;45732;52.850;6.896;2023-07-24T12:59:18;7.63;;;4.82;;
59854;SDS011;45732;52.850;6.896;2023-07-24T13:01:44;10.55;;;5.00;;
59854;SDS011;45732;52.850;6.896;2023-07-24T13:04:10;9.52;;;4.72;;
59854;SDS011;45732;52.850;6.896;2023-07-24T13:06:36;14.52;;;5.43;;
59854;SDS011;45732;52.850;6.896;2023-07-24T13:09:02;8.85;;;4.72;;
59854;SDS011;45732;52.850;6.896;2023-07-24T13:11:28;8.13;;;4.63;;
59854;SDS011;45732;52.850;6.896;2023-07-24T13:13:54;10.60;;;5.22;;
59854;SDS011;45732;52.850;6.896;2023-07-24T13:16:20;8.32;;;4.72;;
59854;SDS011;45732;52.850;6.896;2023-07-24T13:18:46;10.07;;;5.40;;
59854;SDS011;45732;52.850;6.896;2023-07-24T13:21:12;11.55;;;5.53;;
59854;SDS011;45732;52.850;6.896;2023-07-24T13:23:39;9.20;;;4.93;;
59854;SDS011;45732;52.850;6.896;2023-07-24T13:26:05;8.45;;;4.55;;
59854;SDS011;45732;52.850;6.896;2023-07-24T13:28:32;10.23;;;4.40;;
59854;SDS011;45732;52.850;6.896;2023-07-24T13:30:58;9.65;;;4.75;;
59854;SDS011;45732;52.850;6.896;2023-07-24T13:33:24;7.82;;;4.30;;
59854;SDS011;45732;52.850;6.896;2023-07-24T13:35:50;9.00;;;4.85;;
59854;SDS011;45732;52.850;6.896;2023-07-24T13:38:18;8.85;;;4.70;;
59854;SDS011;45732;52.850;6.896;2023-07-24T13:40:44;10.68;;;5.50;;
59854;SDS011;45732;52.850;6.896;2023-07-24T13:43:10;9.30;;;5.32;;
59854;SDS011;45732;52.850;6.896;2023-07-24T13:45:35;8.40;;;5.30;;
59854;SDS011;45732;52.850;6.896;2023-07-24T13:48:01;9.40;;;5.57;;
59854;SDS011;45732;52.850;6.896;2023-07-24T13:50:27;9.73;;;5.90;;
59854;SDS011;45732;52.850;6.896;2023-07-24T13:52:53;8.73;;;5.40;;
59854;SDS011;45732;52.850;6.896;2023-07-24T13:55:19;13.07;;;6.50;;
59854;SDS011;45732;52.850;6.896;2023-07-24T13:57:45;21.95;;;8.73;;
59854;SDS011;45732;52.850;6.896;2023-07-24T14:00:10;13.57;;;7.40;;
59854;SDS011;45732;52.850;6.896;2023-07-24T14:02:36;10.65;;;6.60;;
59854;SDS011;45732;52.850;6.896;2023-07-24T14:05:02;12.70;;;7.72;;
59854;SDS011;45732;52.850;6.896;2023-07-24T14:07:28;10.13;;;6.97;;
59854;SDS011;45732;52.850;6.896;2023-07-24T14:09:54;10.70;;;6.82;;
59854;SDS011;45732;52.850;6.896;2023-07-24T14:12:19;9.55;;;7.47;;
59854;SDS011;45732;52.850;6.896;2023-07-24T14:14:45;10.40;;;7.53;;
59854;SDS011;45732;52.850;6.896;2023-07-24T14:17:11;11.30;;;7.63;;
59854;SDS011;45732;52.850;6.896;2023-07-24T14:19:39;12.13;;;8.60;;
59854;SDS011;45732;52.850;6.896;2023-07-24T14:22:05;11.52;;;7.97;;
59854;SDS011;45732;52.850;6.896;2023-07-24T14:24:31;11.50;;;8.43;;
59854;SDS011;45732;52.850;6.896;2023-07-24T14:26:57;11.75;;;8.57;;
59854;SDS011;45732;52.850;6.896;2023-07-24T14:29:22;10.70;;;8.27;;
59854;SDS011;45732;52.850;6.896;2023-07-24T14:31:48;10.50;;;9.13;;
59854;SDS011;45732;52.850;6.896;2023-07-24T14:34:14;13.13;;;8.27;;
59854;SDS011;45732;52.850;6.896;2023-07-24T14:36:39;10.57;;;7.60;;
59854;SDS011;45732;52.850;6.896;2023-07-24T14:39:05;10.15;;;7.28;;
59854;SDS011;45732;52.850;6.896;2023-07-24T14:41:31;9.60;;;7.55;;
59854;SDS011;45732;52.850;6.896;2023-07-24T14:43:57;11.98;;;7.88;;
59854;SDS011;45732;52.850;6.896;2023-07-24T14:46:23;9.77;;;6.93;;